Time;durP1;ratioP1;P1;durP2;ratioP2;P2;SDS_P1;SDS_P2;PMS_P1;PMS_P2;Temp;Humidity;BMP_temperature;BMP_pressure;BME280_temperature;BME280_humidity;BME280_pressure;Samples;Min_cycle;Max_cycle;Signal;HPM_P1;HPM_P2
2022/06/13 00:01:38;;;;;;;0.20;0.10;;;16.40;99.90;;;;;;4998901;28;20464;-80
2022/06/13 00:04:07;;;;;;;0.20;0.10;;;16.60;99.90;;;;;;4998864;28;20481;-81
2022/06/13 00:06:34;;;;;;;0.20;0.10;;;16.70;99.90;;;;;;4999388;28;20489;-81
2022/06/13 00:09:03;;;;;;;0.20;0.10;;;16.80;99.90;;;;;;4999488;28;20553;-80
2022/06/13 00:11:30;;;;;;;0.20;0.10;;;16.80;99.90;;;;;;4997163;28;20457;-81
2022/06/13 00:13:57;;;;;;;0.20;0.10;;;16.80;99.90;;;;;;4999412;28;20453;-81
2022/06/13 00:16:25;;;;;;;0.20;0.10;;;16.80;99.90;;;;;;4999596;28;20560;-80
2022/06/13 00:18:52;;;;;;;0.20;0.10;;;16.80;99.90;;;;;;4999573;28;20457;-81
2022/06/13 00:21:20;;;;;;;0.20;0.10;;;16.90;99.90;;;;;;4999011;28;20492;-81
2022/06/13 00:23:49;;;;;;;0.20;0.10;;;17.00;99.90;;;;;;4999055;28;20497;-80
2022/06/13 00:26:17;;;;;;;0.20;0.10;;;17.10;99.90;;;;;;4999486;28;20469;-80
2022/06/13 00:28:44;;;;;;;0.20;0.20;;;17.10;99.90;;;;;;4999590;28;20823;-81
2022/06/13 00:31:10;;;;;;;0.20;0.20;;;17.30;99.90;;;;;;4999893;28;20460;-77
2022/06/13 00:33:37;;;;;;;0.20;0.20;;;17.30;99.90;;;;;;5000676;28;20984;-79
2022/06/13 00:36:04;;;;;;;0.20;0.10;;;17.40;99.90;;;;;;4998158;28;20460;-79
2022/06/13 00:38:31;;;;;;;0.20;0.20;;;17.40;99.90;;;;;;4998861;28;20465;-79
2022/06/13 00:40:58;;;;;;;0.50;0.50;;;17.50;99.90;;;;;;4998437;28;20855;-79
2022/06/13 00:43:26;;;;;;;0.67;0.67;;;17.50;99.90;;;;;;4998591;28;20562;-79
2022/06/13 00:45:53;;;;;;;0.20;0.10;;;17.60;99.90;;;;;;4999451;28;20457;-79
2022/06/13 00:48:28;;;;;;;1.10;1.10;;;17.60;99.90;;;;;;4998583;28;20521;-79
2022/06/13 00:50:57;;;;;;;0.20;0.20;;;17.60;99.90;;;;;;4998625;28;20457;-79
2022/06/13 00:53:26;;;;;;;0.20;0.10;;;17.60;99.90;;;;;;4998614;28;20449;-79
2022/06/13 00:55:57;;;;;;;0.20;0.20;;;17.60;99.90;;;;;;4998298;28;20460;-80
2022/06/13 00:58:26;;;;;;;0.33;0.33;;;17.60;99.90;;;;;;4998894;28;20473;-79
2022/06/13 01:00:57;;;;;;;0.20;0.10;;;17.60;99.90;;;;;;4998176;28;20508;-79
2022/06/13 01:03:26;;;;;;;0.20;0.20;;;17.70;99.90;;;;;;4998203;28;20487;-80
2022/06/13 01:05:56;;;;;;;0.20;0.20;;;17.80;99.90;;;;;;4999008;28;20463;-80
2022/06/13 01:08:26;;;;;;;0.20;0.20;;;17.80;99.90;;;;;;4998570;28;21006;-79
2022/06/13 01:13:56;;;;;;;0.20;0.10;;;17.60;99.90;;;;;;4998600;28;20510;-80
2022/06/13 01:16:31;;;;;;;0.30;0.23;;;17.60;99.90;;;;;;4992656;28;20461;-81
2022/06/13 01:19:28;;;;;;;0.20;0.20;;;17.60;99.90;;;;;;4998665;28;20461;-80
2022/06/13 01:22:09;;;;;;;0.20;0.10;;;17.50;99.90;;;;;;5000278;28;20454;-79
2022/06/13 01:25:07;;;;;;;0.20;0.20;;;17.60;99.90;;;;;;4997654;28;21044;-79
2022/06/13 01:28:05;;;;;;;0.20;0.10;;;17.60;99.90;;;;;;4997385;28;20866;-79
2022/06/13 01:30:56;;;;;;;0.20;0.10;;;17.50;99.90;;;;;;4997767;28;20461;-79
2022/06/13 01:33:35;;;;;;;0.30;0.13;;;17.50;99.90;;;;;;4998404;28;20447;-79
2022/06/13 01:36:29;;;;;;;0.30;0.30;;;17.50;99.90;;;;;;4997829;28;20454;-79
2022/06/13 01:39:11;;;;;;;2.27;2.27;;;17.50;99.90;;;;;;4998133;28;20458;-80
2022/06/13 01:41:45;;;;;;;0.20;0.20;;;17.40;99.90;;;;;;4997457;28;20462;-79
2022/06/13 01:44:18;;;;;;;0.37;0.37;;;17.20;99.90;;;;;;4996480;28;20485;-78
2022/06/13 01:47:01;;;;;;;0.20;0.10;;;17.10;99.90;;;;;;4996737;28;20486;-78
2022/06/13 01:49:32;;;;;;;0.20;0.20;;;17.10;99.90;;;;;;4997300;28;20454;-78
2022/06/13 01:52:05;;;;;;;0.20;0.10;;;17.20;99.90;;;;;;4996244;28;20450;-79
2022/06/13 01:54:43;;;;;;;0.20;0.10;;;17.10;99.90;;;;;;4996712;28;20453;-80
2022/06/13 01:57:22;;;;;;;0.20;0.20;;;17.00;99.90;;;;;;4982639;28;20476;-79
2022/06/13 01:59:57;;;;;;;0.20;0.20;;;16.90;99.90;;;;;;4996449;28;20536;-79
2022/06/13 02:02:32;;;;;;;0.20;0.20;;;16.90;99.90;;;;;;4996858;28;20456;-79
2022/06/13 02:05:02;;;;;;;0.37;0.37;;;16.80;99.90;;;;;;4995891;28;20484;-79
2022/06/13 02:07:36;;;;;;;0.20;0.10;;;16.80;99.90;;;;;;4995842;28;20484;-79
2022/06/13 02:10:07;;;;;;;0.20;0.20;;;16.80;99.90;;;;;;4996266;28;20461;-76
2022/06/13 02:12:36;;;;;;;0.20;0.20;;;16.90;99.90;;;;;;4998652;28;20849;-79
2022/06/13 02:15:09;;;;;;;0.23;0.23;;;16.90;99.90;;;;;;4995394;28;20478;-79
2022/06/13 02:17:43;;;;;;;0.20;0.10;;;16.90;99.90;;;;;;4996068;28;20484;-79
2022/06/13 02:20:16;;;;;;;0.20;0.20;;;16.80;99.90;;;;;;4995347;28;20460;-79
2022/06/13 02:22:46;;;;;;;0.20;0.20;;;16.80;99.90;;;;;;4995462;28;20466;-78
2022/06/13 02:25:18;;;;;;;0.20;0.20;;;16.80;99.90;;;;;;4995073;28;20489;-78
2022/06/13 02:27:52;;;;;;;0.20;0.20;;;16.80;99.90;;;;;;4995775;28;20473;-78
2022/06/13 02:30:21;;;;;;;0.30;0.30;;;16.80;99.90;;;;;;4994607;28;20460;-79
2022/06/13 02:32:53;;;;;;;0.20;0.20;;;16.80;99.90;;;;;;4995308;28;20453;-78
2022/06/13 02:35:31;;;;;;;0.20;0.10;;;16.80;99.90;;;;;;4979733;28;20441;-79
2022/06/13 02:38:03;;;;;;;0.20;0.10;;;16.90;99.90;;;;;;4995804;28;20507;-79
2022/06/13 02:40:34;;;;;;;1.73;1.73;;;17.00;99.90;;;;;;4995426;28;20472;-79
2022/06/13 02:43:06;;;;;;;1.50;1.50;;;17.00;99.90;;;;;;4995195;28;20460;-79
2022/06/13 02:45:40;;;;;;;0.50;0.50;;;17.20;99.90;;;;;;4995211;28;20496;-79
2022/06/13 02:48:15;;;;;;;0.20;0.20;;;17.10;99.90;;;;;;4995764;28;20484;-79
2022/06/13 02:50:51;;;;;;;0.20;0.20;;;17.10;99.90;;;;;;4995406;28;20458;-79
2022/06/13 02:53:23;;;;;;;0.20;0.10;;;17.20;99.90;;;;;;4996110;28;20951;-79
2022/06/13 02:55:59;;;;;;;0.20;0.20;;;17.20;99.90;;;;;;4995110;28;20458;-79
2022/06/13 02:58:34;;;;;;;0.20;0.10;;;17.20;99.90;;;;;;4994987;28;20477;-79
2022/06/13 03:01:10;;;;;;;0.20;0.20;;;17.30;99.90;;;;;;4998787;28;20478;-79
2022/06/13 03:03:45;;;;;;;0.20;0.13;;;17.10;99.90;;;;;;4995336;28;20558;-78
2022/06/13 03:06:21;;;;;;;0.20;0.10;;;16.80;99.90;;;;;;4994545;28;20458;-78
2022/06/13 03:08:56;;;;;;;0.20;0.10;;;16.60;99.90;;;;;;5014366;22;20502;-84
2022/06/13 03:11:35;;;;;;;0.20;0.20;;;16.50;99.90;;;;;;5004317;28;20463;-84
2022/06/13 03:14:26;;;;;;;0.20;0.20;;;16.20;99.90;;;;;;5015563;28;20452;-83
2022/06/13 03:16:59;;;;;;;0.20;0.20;;;16.20;99.90;;;;;;5005128;28;20448;-83
2022/06/13 03:19:36;;;;;;;0.20;0.20;;;16.10;99.90;;;;;;5019838;28;20506;-85
2022/06/13 03:22:08;;;;;;;0.20;0.20;;;15.90;99.90;;;;;;5004576;28;20475;-86
2022/06/13 03:24:43;;;;;;;0.20;0.10;;;15.90;99.90;;;;;;5001155;28;20490;-83
2022/06/13 03:27:14;;;;;;;0.30;0.20;;;15.90;99.90;;;;;;5000325;28;21031;-83
2022/06/13 03:29:47;;;;;;;0.20;0.20;;;15.90;99.90;;;;;;5013010;28;21139;-82
2022/06/13 03:32:17;;;;;;;0.20;0.20;;;15.70;99.90;;;;;;5008103;28;20456;-83
2022/06/13 03:34:50;;;;;;;0.87;0.87;;;15.60;99.90;;;;;;5012510;28;20455;-83
2022/06/13 03:37:21;;;;;;;0.20;0.20;;;15.50;99.90;;;;;;5012256;28;20472;-82
2022/06/13 03:39:51;;;;;;;0.20;0.10;;;15.30;99.90;;;;;;5016123;28;20459;-83
2022/06/13 03:42:23;;;;;;;0.30;0.20;;;15.30;99.90;;;;;;4980852;28;20454;-82
2022/06/13 03:44:56;;;;;;;0.20;0.20;;;15.20;99.90;;;;;;5015407;28;20848;-82
2022/06/13 03:47:28;;;;;;;0.20;0.10;;;15.00;99.90;;;;;;4986836;28;20482;-82
2022/06/13 03:50:03;;;;;;;0.20;0.20;;;15.00;99.90;;;;;;5023685;28;20447;-82
2022/06/13 03:52:33;;;;;;;0.30;0.20;;;14.80;99.90;;;;;;5022337;28;20454;-82
2022/06/13 03:55:04;;;;;;;0.20;0.20;;;14.80;99.90;;;;;;5010306;28;20450;-82
2022/06/13 03:57:35;;;;;;;0.20;0.20;;;14.70;99.90;;;;;;5016618;28;20847;-82
2022/06/13 04:00:08;;;;;;;0.20;0.10;;;14.70;99.90;;;;;;5008492;28;20502;-81
2022/06/13 04:02:36;;;;;;;0.20;0.20;;;14.70;99.90;;;;;;5005809;28;20461;-82
2022/06/13 04:05:05;;;;;;;1.07;1.07;;;14.60;99.90;;;;;;5016311;28;20486;-83
2022/06/13 04:07:36;;;;;;;0.20;0.20;;;14.50;99.90;;;;;;5009308;28;20479;-82
2022/06/13 04:10:07;;;;;;;0.20;0.20;;;14.50;99.90;;;;;;5004425;28;20481;-83
2022/06/13 04:13:01;;;;;;;0.20;0.20;;;14.50;99.90;;;;;;5006129;28;20452;-83
2022/06/13 04:15:53;;;;;;;0.20;0.20;;;14.40;99.90;;;;;;5021304;28;20459;-83
2022/06/13 04:18:35;;;;;;;0.20;0.20;;;14.40;99.90;;;;;;5005527;28;20478;-82
2022/06/13 04:21:14;;;;;;;0.20;0.20;;;14.30;99.90;;;;;;5005991;28;20960;-82
2022/06/13 04:23:48;;;;;;;0.30;0.30;;;14.30;99.90;;;;;;5019916;28;20459;-82
2022/06/13 04:26:20;;;;;;;0.90;0.90;;;14.20;99.90;;;;;;5025425;28;20442;-82
2022/06/13 04:28:55;;;;;;;0.20;0.20;;;14.20;99.90;;;;;;5014162;28;20462;-82
2022/06/13 04:31:25;;;;;;;0.20;0.20;;;14.10;99.90;;;;;;5009734;28;20446;-84
2022/06/13 04:33:58;;;;;;;0.20;0.10;;;14.10;99.90;;;;;;5025452;28;20454;-81
2022/06/13 04:36:26;;;;;;;0.20;0.10;;;14.10;99.90;;;;;;5006892;28;20895;-82
2022/06/13 04:38:59;;;;;;;0.20;0.20;;;14.10;99.90;;;;;;5011278;28;20475;-83
2022/06/13 04:41:30;;;;;;;0.20;0.20;;;14.10;99.90;;;;;;5026986;28;20462;-82
2022/06/13 04:44:00;;;;;;;0.20;0.20;;;14.10;99.90;;;;;;5025835;28;20447;-82
2022/06/13 04:46:29;;;;;;;0.30;0.20;;;14.20;99.90;;;;;;5019951;28;20465;-82
2022/06/13 04:48:58;;;;;;;0.20;0.20;;;14.20;99.90;;;;;;5007075;28;20472;-82
2022/06/13 04:51:30;;;;;;;0.23;0.23;;;14.20;99.90;;;;;;5006295;28;20462;-82
2022/06/13 04:54:01;;;;;;;0.20;0.20;;;14.30;99.90;;;;;;5012151;28;20458;-82
2022/06/13 04:56:29;;;;;;;0.30;0.20;;;14.30;99.90;;;;;;5025643;28;20451;-84
2022/06/13 04:58:57;;;;;;;0.20;0.20;;;14.30;99.90;;;;;;5007677;28;20476;-82
2022/06/13 05:01:28;;;;;;;0.30;0.20;;;14.40;99.90;;;;;;5016112;28;20461;-82
2022/06/13 05:03:56;;;;;;;0.20;0.20;;;14.30;99.90;;;;;;5014086;28;20458;-84
2022/06/13 05:06:30;;;;;;;0.20;0.20;;;14.30;99.90;;;;;;5016895;28;20483;-84
2022/06/13 05:09:00;;;;;;;0.20;0.20;;;14.30;99.90;;;;;;5012104;28;20485;-83
2022/06/13 05:11:28;;;;;;;0.20;0.20;;;14.30;99.90;;;;;;5026183;28;20452;-83
2022/06/13 05:13:59;;;;;;;7.00;4.67;;;14.20;99.90;;;;;;5023719;28;20480;-83
2022/06/13 05:16:38;;;;;;;7.00;6.10;;;14.30;99.90;;;;;;5008718;28;20452;-83
2022/06/13 05:19:25;;;;;;;6.73;6.10;;;14.30;99.90;;;;;;5014671;28;20463;-82
2022/06/13 05:22:05;;;;;;;8.23;7.43;;;14.40;99.90;;;;;;5011958;28;20458;-81
2022/06/13 05:24:51;;;;;;;6.73;6.03;;;14.40;99.90;;;;;;5013387;28;20482;-81
2022/06/13 05:27:18;;;;;;;6.40;5.90;;;14.40;99.90;;;;;;5017304;28;20559;-82
2022/06/13 05:29:45;;;;;;;8.73;5.73;;;14.40;99.90;;;;;;5026406;28;20449;-82
2022/06/13 05:32:14;;;;;;;6.23;5.73;;;14.40;99.90;;;;;;5016302;28;20624;-82
2022/06/13 05:34:43;;;;;;;8.30;5.80;;;14.40;99.90;;;;;;5031776;28;20446;-81
2022/06/13 05:37:14;;;;;;;8.77;6.40;;;14.50;99.90;;;;;;5019590;28;20472;-83
2022/06/13 05:39:41;;;;;;;6.20;5.80;;;14.50;99.90;;;;;;5016371;28;20454;-82
2022/06/13 05:42:14;;;;;;;7.60;6.83;;;14.60;99.90;;;;;;5024140;28;20480;-86
2022/06/13 05:44:41;;;;;;;11.07;6.27;;;14.60;99.90;;;;;;5005788;28;20482;-82
2022/06/13 05:47:10;;;;;;;5.33;4.83;;;14.70;99.90;;;;;;5019350;28;20483;-82
2022/06/13 05:49:36;;;;;;;6.53;5.70;;;14.70;99.90;;;;;;5017142;28;20461;-82
2022/06/13 05:52:04;;;;;;;8.37;5.87;;;14.70;99.90;;;;;;5010765;28;20461;-82
2022/06/13 05:54:32;;;;;;;8.73;5.30;;;14.80;99.90;;;;;;5000669;28;20510;-82
2022/06/13 05:56:59;;;;;;;6.10;4.70;;;14.80;99.90;;;;;;5000685;28;20461;-82
2022/06/13 05:59:25;;;;;;;6.60;6.00;;;14.80;99.90;;;;;;5004990;28;20461;-82
2022/06/13 06:01:52;;;;;;;5.93;5.33;;;14.80;99.90;;;;;;5013957;28;20961;-82
2022/06/13 06:04:19;;;;;;;8.00;5.77;;;14.90;99.90;;;;;;5001069;28;20457;-83
2022/06/13 06:06:45;;;;;;;5.33;4.83;;;14.90;99.90;;;;;;5005520;28;20462;-82
2022/06/13 06:09:14;;;;;;;5.30;4.23;;;15.00;99.90;;;;;;5017206;28;20454;-82
2022/06/13 06:11:42;;;;;;;7.80;5.13;;;14.90;99.90;;;;;;5000866;28;20451;-82
2022/06/13 06:14:09;;;;;;;4.90;4.60;;;15.00;99.90;;;;;;5003092;28;20564;-82
2022/06/13 06:16:36;;;;;;;7.83;4.63;;;15.10;99.90;;;;;;5003660;28;20945;-82
2022/06/13 06:19:03;;;;;;;6.03;5.50;;;15.10;99.90;;;;;;5001271;28;20510;-82
2022/06/13 06:21:29;;;;;;;5.17;3.87;;;15.20;99.90;;;;;;4999478;28;20452;-82
2022/06/13 06:23:56;;;;;;;4.80;4.30;;;15.20;99.90;;;;;;4999835;28;20520;-83
2022/06/13 06:26:25;;;;;;;7.73;5.47;;;15.30;99.90;;;;;;4998749;28;20483;-83
2022/06/13 06:28:54;;;;;;;7.70;3.90;;;15.30;99.90;;;;;;4998446;28;20475;-81
2022/06/13 06:31:21;;;;;;;4.73;4.23;;;15.40;99.90;;;;;;5003092;28;20517;-82
2022/06/13 06:33:48;;;;;;;6.00;4.40;;;15.40;99.90;;;;;;4997637;28;20450;-82
2022/06/13 06:36:15;;;;;;;6.23;4.00;;;15.50;99.90;;;;;;4999900;28;20448;-83
2022/06/13 06:38:42;;;;;;;4.43;4.03;;;15.60;99.90;;;;;;5000263;28;21135;-82
2022/06/13 06:41:09;;;;;;;3.97;3.67;;;15.60;99.90;;;;;;4999132;28;20455;-82
2022/06/13 06:43:35;;;;;;;8.50;4.30;;;15.60;99.90;;;;;;5011518;28;20453;-82
2022/06/13 06:46:04;;;;;;;4.63;4.20;;;15.70;99.90;;;;;;5018356;28;20885;-82
2022/06/13 06:48:30;;;;;;;7.30;3.90;;;15.80;99.90;;;;;;5006985;28;20478;-81
2022/06/13 06:50:57;;;;;;;8.93;4.73;;;15.80;99.90;;;;;;5004040;28;20452;-81
2022/06/13 06:53:27;;;;;;;3.50;3.20;;;15.80;99.90;;;;;;5014640;28;20452;-82
2022/06/13 07:01:24;;;;;;;3.53;2.83;;;16.00;99.90;;;;;;5003357;28;20449;-82
2022/06/13 07:03:51;;;;;;;11.97;4.37;;;16.00;99.90;;;;;;5003845;28;20461;-82
2022/06/13 07:06:20;;;;;;;3.13;2.40;;;16.00;99.90;;;;;;5004936;28;20493;-86
2022/06/13 07:08:47;;;;;;;4.37;3.97;;;16.10;99.90;;;;;;5014660;28;20510;-85
2022/06/13 07:14:09;;;;;;;5.63;3.70;;;16.10;99.90;;;;;;4995690;28;20978;-87
2022/06/13 07:16:38;;;;;;;4.33;3.50;;;16.20;99.90;;;;;;4995151;28;20457;-86
2022/06/13 07:19:05;;;;;;;4.90;4.23;;;16.30;99.90;;;;;;4995299;28;20460;-86
2022/06/13 07:21:31;;;;;;;6.60;4.40;;;16.40;99.90;;;;;;4997485;28;20448;-86
2022/06/13 07:23:59;;;;;;;4.13;3.83;;;16.50;99.90;;;;;;4999202;28;20830;-86
2022/06/13 07:26:28;;;;;;;5.30;4.90;;;16.60;99.90;;;;;;4998619;28;20489;-86
2022/06/13 07:28:56;;;;;;;4.57;3.50;;;16.70;99.90;;;;;;4998560;28;20543;-86
2022/06/13 07:34:15;;;;;;;6.43;4.23;;;16.70;99.90;;;;;;4998765;28;20966;-86
2022/06/13 07:36:43;;;;;;;5.57;4.90;;;16.70;99.90;;;;;;4998577;28;20452;-86
2022/06/13 07:39:14;;;;;;;4.60;4.13;;;16.80;99.90;;;;;;4999195;28;20461;-86
2022/06/13 07:41:41;;;;;;;5.43;4.93;;;16.80;99.90;;;;;;4999386;28;20820;-86
2022/06/13 07:44:12;;;;;;;5.60;3.27;;;16.80;99.90;;;;;;4999679;28;20449;-86
2022/06/13 07:46:38;;;;;;;5.00;4.07;;;16.90;99.90;;;;;;4999738;28;20504;-86
2022/06/13 07:49:05;;;;;;;8.20;4.47;;;16.90;99.90;;;;;;5000111;28;20973;-86
2022/06/13 07:51:33;;;;;;;4.07;3.60;;;17.00;99.90;;;;;;4999587;28;20461;-86
2022/06/13 07:54:00;;;;;;;3.90;3.40;;;17.00;99.90;;;;;;5000321;28;20463;-86
2022/06/13 07:56:30;;;;;;;4.70;3.80;;;17.00;99.90;;;;;;4999855;28;20449;-86
2022/06/13 07:58:58;;;;;;;3.20;2.90;;;17.10;99.90;;;;;;5000823;28;20483;-86
2022/06/13 08:01:26;;;;;;;5.00;2.93;;;17.20;99.90;;;;;;5008674;28;20467;-85
2022/06/13 08:03:53;;;;;;;5.63;3.73;;;17.30;99.90;;;;;;5011345;28;20485;-86
2022/06/13 08:06:21;;;;;;;4.57;3.60;;;17.40;99.90;;;;;;5010114;28;20520;-85
2022/06/13 08:08:50;;;;;;;4.47;4.17;;;17.40;99.90;;;;;;5010474;28;20492;-85
2022/06/13 08:11:19;;;;;;;5.10;3.90;;;17.30;99.90;;;;;;5005279;28;20454;-86
2022/06/13 08:13:46;;;;;;;4.67;3.50;;;17.40;99.90;;;;;;5000247;28;20454;-86
2022/06/13 08:16:13;;;;;;;6.57;4.37;;;17.50;99.90;;;;;;4999941;28;20942;-86
2022/06/13 08:18:40;;;;;;;5.40;3.17;;;17.60;99.90;;;;;;5003065;28;20470;-85
2022/06/13 08:21:08;;;;;;;8.00;3.57;;;17.70;99.90;;;;;;5012033;28;20505;-85
2022/06/13 08:23:35;;;;;;;5.50;3.10;;;17.70;99.90;;;;;;5011979;28;20497;-85
2022/06/13 08:26:03;;;;;;;4.87;4.37;;;17.70;99.90;;;;;;5011037;28;20489;-85
2022/06/13 08:28:30;;;;;;;3.83;3.50;;;17.70;99.90;;;;;;5008697;28;20845;-86
2022/06/13 08:31:01;;;;;;;4.70;3.83;;;17.70;99.90;;;;;;5009611;28;20462;-83
2022/06/13 08:33:28;;;;;;;4.27;3.50;;;17.80;99.90;;;;;;5010736;28;20512;-83
2022/06/13 08:35:55;;;;;;;4.60;3.37;;;17.90;99.90;;;;;;5010975;28;20529;-83
2022/06/13 08:38:24;;;;;;;5.30;3.47;;;18.00;99.90;;;;;;5006337;28;20506;-84
2022/06/13 08:41:01;;;;;;;4.27;3.50;;;18.10;99.90;;;;;;5000821;28;20460;-84
2022/06/13 08:44:06;;;;;;;4.07;3.53;;;18.10;99.90;;;;;;5000316;28;20477;-84
2022/06/13 08:46:45;;;;;;;3.23;2.87;;;18.00;99.90;;;;;;5000181;28;20865;-84
2022/06/13 08:49:21;;;;;;;6.20;3.90;;;18.10;99.90;;;;;;4999154;28;20457;-86
2022/06/13 08:52:05;;;;;;;4.50;4.10;;;18.30;99.90;;;;;;4997135;28;20465;-86
2022/06/13 08:54:34;;;;;;;10.70;5.10;;;18.40;99.90;;;;;;4997522;28;20451;-86
2022/06/13 08:57:05;;;;;;;3.73;3.40;;;18.50;99.90;;;;;;4997471;28;20478;-86
2022/06/13 08:59:37;;;;;;;3.80;3.47;;;18.80;99.90;;;;;;4997924;28;20461;-84
2022/06/13 09:02:11;;;;;;;6.13;4.30;;;18.90;99.90;;;;;;4998753;28;20546;-84
2022/06/13 09:04:43;;;;;;;4.43;3.63;;;19.10;99.90;;;;;;4997048;28;20913;-87
2022/06/13 09:07:16;;;;;;;4.37;3.80;;;19.20;99.70;;;;;;5020965;23;20503;-81
2022/06/13 09:09:49;;;;;;;5.20;3.63;;;19.30;99.10;;;;;;5014971;28;20484;-80
2022/06/13 09:12:20;;;;;;;6.13;3.90;;;19.40;98.80;;;;;;5015574;28;20805;-83
2022/06/13 09:14:51;;;;;;;4.53;3.83;;;19.50;99.30;;;;;;5015305;28;20434;-83
2022/06/13 09:17:24;;;;;;;6.40;4.40;;;19.70;97.90;;;;;;5015641;28;20434;-82
2022/06/13 09:19:56;;;;;;;5.50;4.70;;;19.70;98.20;;;;;;5015930;28;20431;-82
2022/06/13 09:22:27;;;;;;;5.90;4.30;;;19.50;96.60;;;;;;5018641;28;20474;-82
2022/06/13 09:25:01;;;;;;;4.03;3.63;;;19.40;97.90;;;;;;5020877;28;20450;-82
2022/06/13 09:27:33;;;;;;;4.53;4.10;;;19.50;97.70;;;;;;5021106;28;20869;-82
2022/06/13 09:30:06;;;;;;;7.70;4.30;;;19.70;98.30;;;;;;5020292;28;20462;-82
2022/06/13 09:32:40;;;;;;;3.80;3.37;;;19.50;97.30;;;;;;5020550;28;20798;-83
2022/06/13 09:35:16;;;;;;;4.20;3.90;;;19.40;97.30;;;;;;5020593;28;20461;-83
2022/06/13 09:37:48;;;;;;;4.23;3.57;;;19.30;97.50;;;;;;5019845;28;20478;-83
2022/06/13 09:40:18;;;;;;;5.20;3.17;;;19.40;96.70;;;;;;5020517;28;20458;-83
2022/06/13 09:42:59;;;;;;;3.00;2.80;;;19.50;95.70;;;;;;5019515;28;20499;-83
2022/06/13 09:45:53;;;;;;;3.20;2.90;;;19.60;92.40;;;;;;5020080;28;20828;-84
2022/06/13 09:48:32;;;;;;;3.53;2.80;;;19.70;94.40;;;;;;5018201;28;20470;-83
2022/06/13 09:51:09;;;;;;;5.53;3.47;;;19.70;93.10;;;;;;5021333;28;20477;-83
2022/06/13 09:53:54;;;;;;;6.70;3.50;;;19.70;92.60;;;;;;5021306;28;20504;-84
2022/06/13 09:56:29;;;;;;;3.83;2.93;;;19.70;93.30;;;;;;5020582;28;20443;-83
2022/06/13 09:59:11;;;;;;;5.27;3.30;;;19.90;93.60;;;;;;5020401;28;20469;-84
2022/06/13 10:01:44;;;;;;;5.23;2.43;;;19.80;91.00;;;;;;5020471;28;20879;-83
2022/06/13 10:04:17;;;;;;;2.70;2.50;;;20.00;89.70;;;;;;5021127;28;20461;-83
2022/06/13 10:06:47;;;;;;;3.03;2.27;;;19.80;88.60;;;;;;5020853;28;20491;-83
2022/06/13 10:09:23;;;;;;;3.43;2.80;;;19.90;90.00;;;;;;5020724;28;20514;-83
2022/06/13 10:11:57;;;;;;;2.30;2.20;;;20.00;91.50;;;;;;5020880;28;20439;-83
2022/06/13 10:14:51;;;;;;;3.30;2.30;;;20.00;88.70;;;;;;5020387;28;20451;-83
2022/06/13 10:17:29;;;;;;;2.63;2.43;;;20.00;88.70;;;;;;5016350;28;20455;-83
2022/06/13 10:20:05;;;;;;;4.60;2.83;;;20.10;90.60;;;;;;5020422;28;20825;-83
2022/06/13 10:22:38;;;;;;;2.90;2.70;;;20.00;90.00;;;;;;5020615;28;20492;-84
2022/06/13 10:25:20;;;;;;;3.00;2.70;;;20.00;90.00;;;;;;5020046;28;20451;-84
2022/06/13 10:27:55;;;;;;;3.10;2.27;;;20.20;89.80;;;;;;5020164;28;20489;-84
2022/06/13 10:30:35;;;;;;;4.90;2.57;;;20.40;88.60;;;;;;5019698;28;20968;-84
2022/06/13 10:33:15;;;;;;;4.80;2.50;;;20.60;88.00;;;;;;5020334;28;20538;-84
2022/06/13 10:35:53;;;;;;;3.43;3.13;;;20.90;88.80;;;;;;5019999;28;20460;-83
2022/06/13 10:38:41;;;;;;;4.20;2.73;;;20.80;88.40;;;;;;5020625;28;20493;-83
2022/06/13 10:41:09;;;;;;;3.73;3.47;;;20.80;88.80;;;;;;5023603;28;20472;-83
2022/06/13 10:43:37;;;;;;;3.80;3.10;;;20.60;86.70;;;;;;5023500;28;20455;-85
2022/06/13 10:46:05;;;;;;;4.37;3.03;;;20.80;88.10;;;;;;5023875;28;20457;-84
2022/06/13 10:48:39;;;;;;;3.30;3.00;;;21.00;86.90;;;;;;5023786;28;20472;-83
2022/06/13 10:51:07;;;;;;;5.70;3.40;;;21.20;86.80;;;;;;5023016;28;20463;-85
2022/06/13 10:53:39;;;;;;;2.50;2.30;;;21.20;84.40;;;;;;5023940;28;20453;-82
2022/06/13 10:56:13;;;;;;;3.93;2.73;;;21.40;86.30;;;;;;5024347;28;20548;-83
2022/06/13 10:58:46;;;;;;;3.73;2.70;;;21.50;86.20;;;;;;5024283;28;20483;-84
2022/06/13 11:01:15;;;;;;;2.93;2.30;;;21.70;81.10;;;;;;5023061;28;20826;-82
2022/06/13 11:03:44;;;;;;;6.43;2.63;;;21.90;81.80;;;;;;5023528;28;20452;-84
2022/06/13 11:06:22;;;;;;;2.83;2.63;;;22.00;83.80;;;;;;5023983;28;20498;-83
2022/06/13 11:08:59;;;;;;;3.00;2.70;;;22.00;82.10;;;;;;5024529;28;20480;-84
2022/06/13 11:11:32;;;;;;;9.00;3.27;;;21.60;80.70;;;;;;5024643;28;20874;-84
2022/06/13 11:14:00;;;;;;;3.17;2.87;;;21.70;83.60;;;;;;5020691;28;20817;-83
2022/06/13 11:25:03;;;;;;;6.00;2.77;;;22.80;82.50;;;;;;5019888;28;20433;-83
2022/06/13 11:27:42;;;;;;;3.30;2.40;;;23.20;78.00;;;;;;5019704;28;20501;-84
2022/06/13 11:30:34;;;;;;;3.60;2.87;;;23.30;76.70;;;;;;5023999;28;20545;-85
2022/06/13 11:33:03;;;;;;;2.73;2.53;;;23.50;73.60;;;;;;5022680;28;20971;-84
2022/06/13 11:35:36;;;;;;;3.37;3.10;;;23.50;70.80;;;;;;5024338;28;20511;-85
2022/06/13 11:38:33;;;;;;;4.33;2.63;;;23.50;73.20;;;;;;5024165;28;20473;-84
2022/06/13 11:41:14;;;;;;;3.00;2.60;;;23.50;73.00;;;;;;5000224;28;20454;-84
2022/06/13 11:43:45;;;;;;;4.40;2.17;;;23.50;72.70;;;;;;5024220;28;20438;-84
2022/06/13 11:46:31;;;;;;;2.70;1.70;;;23.50;72.30;;;;;;5029500;28;20434;-83
2022/06/13 11:49:04;;;;;;;3.83;2.30;;;23.60;70.40;;;;;;5030610;28;20535;-83
2022/06/13 11:51:39;;;;;;;2.40;2.20;;;23.90;72.30;;;;;;5024984;28;20457;-84
2022/06/13 11:54:25;;;;;;;2.90;2.60;;;23.20;68.30;;;;;;5023200;28;20445;-84
2022/06/13 11:57:20;;;;;;;4.30;2.50;;;23.40;67.50;;;;;;5023136;28;20447;-84
2022/06/13 11:59:51;;;;;;;3.20;2.90;;;23.90;71.30;;;;;;5023859;28;20462;-84
2022/06/13 12:02:20;;;;;;;3.37;3.07;;;24.40;68.50;;;;;;5023355;28;20470;-84
2022/06/13 12:04:47;;;;;;;3.23;2.10;;;24.60;67.60;;;;;;5023371;28;20438;-84
2022/06/13 12:07:24;;;;;;;2.73;2.50;;;24.00;66.30;;;;;;5022877;28;21162;-84
2022/06/13 12:09:58;;;;;;;2.17;2.07;;;24.10;70.50;;;;;;5023223;28;20512;-84
2022/06/13 12:12:27;;;;;;;3.40;2.53;;;23.80;66.60;;;;;;5023272;28;20460;-84
2022/06/13 12:14:55;;;;;;;4.37;2.93;;;23.00;64.70;;;;;;5023277;28;20979;-83
2022/06/13 12:17:27;;;;;;;2.07;1.97;;;22.90;66.90;;;;;;5023132;28;20451;-83
2022/06/13 12:20:02;;;;;;;1.93;1.73;;;23.40;66.00;;;;;;5023295;28;20455;-84
2022/06/13 12:22:35;;;;;;;5.70;2.70;;;24.30;64.80;;;;;;5022552;28;20443;-84
2022/06/13 12:25:11;;;;;;;2.50;2.40;;;25.00;65.20;;;;;;5023008;28;20456;-85
2022/06/13 12:27:49;;;;;;;4.53;2.00;;;25.60;63.50;;;;;;5023259;28;21030;-84
2022/06/13 12:30:27;;;;;;;3.40;2.33;;;25.50;61.40;;;;;;5023613;28;20468;-84
2022/06/13 12:33:03;;;;;;;3.57;2.17;;;25.20;59.80;;;;;;5022093;28;20820;-84
2022/06/13 12:35:40;;;;;;;2.40;2.20;;;25.50;62.40;;;;;;5022307;28;20453;-84
2022/06/13 12:38:22;;;;;;;2.17;1.97;;;25.80;59.50;;;;;;5023068;28;20473;-84
2022/06/13 12:41:03;;;;;;;4.40;3.07;;;25.70;57.80;;;;;;5022391;28;20803;-83
2022/06/13 12:43:58;;;;;;;6.80;2.90;;;25.70;61.90;;;;;;5022139;28;20457;-84
2022/06/13 12:46:53;;;;;;;2.70;2.50;;;26.20;62.20;;;;;;5019326;28;20458;-84
2022/06/13 12:49:37;;;;;;;2.93;2.63;;;26.70;58.40;;;;;;5022035;28;20476;-84
2022/06/13 12:52:13;;;;;;;2.60;2.40;;;26.50;59.80;;;;;;5022543;28;20461;-84
2022/06/13 12:54:50;;;;;;;5.30;2.60;;;26.20;62.10;;;;;;5022873;28;20954;-84
2022/06/13 12:57:46;;;;;;;2.60;2.17;;;26.30;59.00;;;;;;5022325;28;20457;-84
2022/06/13 13:00:20;;;;;;;2.47;2.33;;;26.20;57.90;;;;;;5023360;28;20917;-84
2022/06/13 13:03:22;;;;;;;2.10;2.00;;;25.70;56.90;;;;;;5022282;28;20453;-84
2022/06/13 13:06:00;;;;;;;2.33;2.10;;;25.90;59.80;;;;;;5019688;28;20453;-84
2022/06/13 13:08:41;;;;;;;3.13;2.20;;;26.10;57.90;;;;;;5022388;28;20497;-84
2022/06/13 13:11:29;;;;;;;4.27;2.63;;;25.10;58.60;;;;;;5022484;28;20551;-84
2022/06/13 13:14:07;;;;;;;2.40;2.07;;;24.60;58.90;;;;;;5019173;28;20476;-83
2022/06/13 13:16:44;;;;;;;2.10;2.00;;;24.60;58.30;;;;;;5018765;28;20453;-83
2022/06/13 13:19:30;;;;;;;3.60;2.70;;;24.90;60.10;;;;;;5022324;28;20929;-85
2022/06/13 13:22:03;;;;;;;4.10;2.17;;;25.70;61.90;;;;;;5024494;28;20476;-84
2022/06/13 13:24:56;;;;;;;2.60;2.40;;;26.80;57.00;;;;;;5025010;28;20451;-84
2022/06/13 13:27:26;;;;;;;2.20;2.00;;;27.40;55.30;;;;;;5023978;28;20503;-84
2022/06/13 13:30:02;;;;;;;2.80;2.00;;;28.00;53.40;;;;;;5025402;28;20462;-85
2022/06/13 13:32:40;;;;;;;2.10;1.90;;;28.80;54.40;;;;;;5025081;28;20458;-85
2022/06/13 13:35:18;;;;;;;2.33;1.80;;;29.10;52.10;;;;;;5025144;28;20454;-84
2022/06/13 13:37:49;;;;;;;2.30;1.80;;;28.70;48.70;;;;;;5025415;28;20454;-85
2022/06/13 13:40:22;;;;;;;2.90;2.17;;;28.50;50.00;;;;;;5025531;28;20458;-84